sensor_id;sensor_type;location;lat;lon;timestamp;temperature;humidity
23579;DHT22;11967;50.852;4.400;2023-07-24T00:00:10;20.70;99.90
23579;DHT22;11967;50.852;4.400;2023-07-24T00:02:35;20.70;99.90
23579;DHT22;11967;50.852;4.400;2023-07-24T00:05:01;20.70;99.90
23579;DHT22;11967;50.852;4.400;2023-07-24T00:07:27;20.70;99.90
23579;DHT22;11967;50.852;4.400;2023-07-24T00:09:56;20.70;99.90
23579;DHT22;11967;50.852;4.400;2023-07-24T00:12:52;20.80;99.90
23579;DHT22;11967;50.852;4.400;2023-07-24T00:15:18;20.80;99.90
23579;DHT22;11967;50.852;4.400;2023-07-24T00:17:46;20.80;99.90
23579;DHT22;11967;50.852;4.400;2023-07-24T00:20:12;20.80;99.90
23579;DHT22;11967;50.852;4.400;2023-07-24T00:22:38;20.90;99.90
23579;DHT22;11967;50.852;4.400;2023-07-24T00:25:05;20.80;99.90
23579;DHT22;11967;50.852;4.400;2023-07-24T00:27:31;20.80;99.90
23579;DHT22;11967;50.852;4.400;2023-07-24T00:29:57;20.80;99.90
23579;DHT22;11967;50.852;4.400;2023-07-24T00:32:23;20.80;99.90
23579;DHT22;11967;50.852;4.400;2023-07-24T00:34:48;20.80;99.90
23579;DHT22;11967;50.852;4.400;2023-07-24T00:37:14;20.80;99.90
23579;DHT22;11967;50.852;4.400;2023-07-24T00:39:40;20.70;99.90
23579;DHT22;11967;50.852;4.400;2023-07-24T00:42:05;20.80;99.90
23579;DHT22;11967;50.852;4.400;2023-07-24T00:44:31;20.70;99.90
23579;DHT22;11967;50.852;4.400;2023-07-24T00:46:57;20.70;99.90
23579;DHT22;11967;50.852;4.400;2023-07-24T00:49:23;20.50;99.90
23579;DHT22;11967;50.852;4.400;2023-07-24T00:51:49;20.60;99.90
23579;DHT22;11967;50.852;4.400;2023-07-24T00:54:15;20.60;99.90
23579;DHT22;11967;50.852;4.400;2023-07-24T00:56:42;20.70;99.90
23579;DHT22;11967;50.852;4.400;2023-07-24T00:59:08;20.70;99.90
23579;DHT22;11967;50.852;4.400;2023-07-24T01:01:33;20.70;99.90
23579;DHT22;11967;50.852;4.400;2023-07-24T01:04:01;20.70;99.90
23579;DHT22;11967;50.852;4.400;2023-07-24T01:06:27;20.70;99.90
23579;DHT22;11967;50.852;4.400;2023-07-24T01:08:54;20.70;99.90
23579;DHT22;11967;50.852;4.400;2023-07-24T01:11:21;20.70;99.90
23579;DHT22;11967;50.852;4.400;2023-07-24T01:13:56;20.70;99.90
23579;DHT22;11967;50.852;4.400;2023-07-24T01:16:22;20.60;99.90
23579;DHT22;11967;50.852;4.400;2023-07-24T01:18:49;20.60;99.90
23579;DHT22;11967;50.852;4.400;2023-07-24T01:21:17;20.60;99.90
23579;DHT22;11967;50.852;4.400;2023-07-24T01:23:56;20.60;99.90
23579;DHT22;11967;50.852;4.400;2023-07-24T01:26:22;20.50;99.90
23579;DHT22;11967;50.852;4.400;2023-07-24T01:28:49;20.50;99.90
23579;DHT22;11967;50.852;4.400;2023-07-24T01:31:14;20.50;99.90
23579;DHT22;11967;50.852;4.400;2023-07-24T01:33:42;20.40;99.90
23579;DHT22;11967;50.852;4.400;2023-07-24T01:36:07;20.40;99.90
23579;DHT22;11967;50.852;4.400;2023-07-24T01:38:33;20.30;99.90
23579;DHT22;11967;50.852;4.400;2023-07-24T01:40:59;20.30;99.90
23579;DHT22;11967;50.852;4.400;2023-07-24T01:43:25;20.20;99.90
23579;DHT22;11967;50.852;4.400;2023-07-24T01:45:53;20.10;99.90
23579;DHT22;11967;50.852;4.400;2023-07-24T01:48:19;20.10;99.90
23579;DHT22;11967;50.852;4.400;2023-07-24T01:50:45;20.10;99.90
23579;DHT22;11967;50.852;4.400;2023-07-24T01:53:10;20.10;99.90
23579;DHT22;11967;50.852;4.400;2023-07-24T01:55:36;20.20;99.90
23579;DHT22;11967;50.852;4.400;2023-07-24T01:58:01;20.20;99.90
23579;DHT22;11967;50.852;4.400;2023-07-24T02:00:27;20.20;99.90
23579;DHT22;11967;50.852;4.400;2023-07-24T02:02:52;20.20;99.90
23579;DHT22;11967;50.852;4.400;2023-07-24T02:05:18;20.30;99.90
23579;DHT22;11967;50.852;4.400;2023-07-24T02:07:44;20.30;99.90
23579;DHT22;11967;50.852;4.400;2023-07-24T02:10:09;20.30;99.90
23579;DHT22;11967;50.852;4.400;2023-07-24T02:12:35;20.30;99.90
23579;DHT22;11967;50.852;4.400;2023-07-24T02:15:01;20.30;99.90
23579;DHT22;11967;50.852;4.400;2023-07-24T02:17:27;20.30;99.90
23579;DHT22;11967;50.852;4.400;2023-07-24T02:19:53;20.30;99.90
23579;DHT22;11967;50.852;4.400;2023-07-24T02:22:22;20.20;99.90
23579;DHT22;11967;50.852;4.400;2023-07-24T02:24:47;20.20;99.90
23579;DHT22;11967;50.852;4.400;2023-07-24T02:27:23;20.20;99.90
23579;DHT22;11967;50.852;4.400;2023-07-24T02:29:49;20.30;99.90
23579;DHT22;11967;50.852;4.400;2023-07-24T02:32:16;20.30;99.90
23579;DHT22;11967;50.852;4.400;2023-07-24T02:35:04;20.30;99.90
23579;DHT22;11967;50.852;4.400;2023-07-24T02:37:39;20.30;99.90
23579;DHT22;11967;50.852;4.400;2023-07-24T02:40:05;20.30;99.90
23579;DHT22;11967;50.852;4.400;2023-07-24T02:42:35;20.30;99.90
23579;DHT22;11967;50.852;4.400;2023-07-24T02:45:01;20.30;99.90
23579;DHT22;11967;50.852;4.400;2023-07-24T02:47:28;20.30;99.90
23579;DHT22;11967;50.852;4.400;2023-07-24T02:50:03;20.40;99.90
23579;DHT22;11967;50.852;4.400;2023-07-24T02:52:29;20.30;99.90
23579;DHT22;11967;50.852;4.400;2023-07-24T02:54:55;20.30;99.90
23579;DHT22;11967;50.852;4.400;2023-07-24T02:57:20;20.30;99.90
23579;DHT22;11967;50.852;4.400;2023-07-24T02:59:46;20.30;99.90
23579;DHT22;11967;50.852;4.400;2023-07-24T03:02:12;20.30;99.90
23579;DHT22;11967;50.852;4.400;2023-07-24T03:04:37;20.30;99.90
23579;DHT22;11967;50.852;4.400;2023-07-24T03:07:03;20.30;99.90
23579;DHT22;11967;50.852;4.400;2023-07-24T03:09:29;20.30;99.90
23579;DHT22;11967;50.852;4.400;2023-07-24T03:11:55;20.20;99.90
23579;DHT22;11967;50.852;4.400;2023-07-24T03:14:21;20.10;99.90
23579;DHT22;11967;50.852;4.400;2023-07-24T03:16:52;20.00;99.90
23579;DHT22;11967;50.852;4.400;2023-07-24T03:19:20;19.90;99.90
23579;DHT22;11967;50.852;4.400;2023-07-24T03:21:46;20.00;99.90
23579;DHT22;11967;50.852;4.400;2023-07-24T03:24:15;20.00;99.90
23579;DHT22;11967;50.852;4.400;2023-07-24T03:26:41;19.90;99.90
23579;DHT22;11967;50.852;4.400;2023-07-24T03:29:07;19.90;99.90
23579;DHT22;11967;50.852;4.400;2023-07-24T03:31:34;19.90;99.90
23579;DHT22;11967;50.852;4.400;2023-07-24T03:34:00;19.90;99.90
23579;DHT22;11967;50.852;4.400;2023-07-24T03:36:26;19.90;99.90
23579;DHT22;11967;50.852;4.400;2023-07-24T03:38:53;19.80;99.90
23579;DHT22;11967;50.852;4.400;2023-07-24T03:41:27;19.80;99.90
23579;DHT22;11967;50.852;4.400;2023-07-24T03:43:53;19.80;99.90
23579;DHT22;11967;50.852;4.400;2023-07-24T03:46:19;19.80;99.90
23579;DHT22;11967;50.852;4.400;2023-07-24T03:48:44;19.90;99.90
23579;DHT22;11967;50.852;4.400;2023-07-24T03:51:10;19.80;99.90
23579;DHT22;11967;50.852;4.400;2023-07-24T03:53:38;19.80;99.90
23579;DHT22;11967;50.852;4.400;2023-07-24T03:56:07;19.80;99.90
23579;DHT22;11967;50.852;4.400;2023-07-24T03:58:33;19.80;99.90
23579;DHT22;11967;50.852;4.400;2023-07-24T04:01:00;19.70;99.90
23579;DHT22;11967;50.852;4.400;2023-07-24T04:03:27;19.70;99.90
23579;DHT22;11967;50.852;4.400;2023-07-24T04:05:53;19.70;99.90
23579;DHT22;11967;50.852;4.400;2023-07-24T04:08:19;19.70;99.90
23579;DHT22;11967;50.852;4.400;2023-07-24T04:10:45;19.70;99.90
23579;DHT22;11967;50.852;4.400;2023-07-24T04:13:11;19.70;99.90
23579;DHT22;11967;50.852;4.400;2023-07-24T04:15:36;19.70;99.90
23579;DHT22;11967;50.852;4.400;2023-07-24T04:18:03;19.60;99.90
23579;DHT22;11967;50.852;4.400;2023-07-24T04:20:29;19.60;99.90
23579;DHT22;11967;50.852;4.400;2023-07-24T04:22:54;19.70;99.90
23579;DHT22;11967;50.852;4.400;2023-07-24T04:25:20;19.60;99.90
23579;DHT22;11967;50.852;4.400;2023-07-24T04:27:45;19.60;99.90
23579;DHT22;11967;50.852;4.400;2023-07-24T04:30:11;19.60;99.90
23579;DHT22;11967;50.852;4.400;2023-07-24T04:32:36;19.60;99.90
23579;DHT22;11967;50.852;4.400;2023-07-24T04:35:02;19.60;99.90
23579;DHT22;11967;50.852;4.400;2023-07-24T04:37:28;19.60;99.90
23579;DHT22;11967;50.852;4.400;2023-07-24T04:39:54;19.60;99.90
23579;DHT22;11967;50.852;4.400;2023-07-24T04:42:19;19.60;99.90
23579;DHT22;11967;50.852;4.400;2023-07-24T04:44:45;19.50;99.90
23579;DHT22;11967;50.852;4.400;2023-07-24T04:47:10;19.50;99.90
23579;DHT22;11967;50.852;4.400;2023-07-24T04:49:37;19.50;99.90
23579;DHT22;11967;50.852;4.400;2023-07-24T04:52:03;19.60;99.90
23579;DHT22;11967;50.852;4.400;2023-07-24T04:54:28;19.50;99.90
23579;DHT22;11967;50.852;4.400;2023-07-24T04:56:54;19.50;99.90
23579;DHT22;11967;50.852;4.400;2023-07-24T04:59:19;19.60;99.90
23579;DHT22;11967;50.852;4.400;2023-07-24T05:01:45;19.60;99.90
23579;DHT22;11967;50.852;4.400;2023-07-24T05:04:10;19.70;99.90
23579;DHT22;11967;50.852;4.400;2023-07-24T05:06:36;19.80;99.90
23579;DHT22;11967;50.852;4.400;2023-07-24T05:09:03;19.70;99.90
23579;DHT22;11967;50.852;4.400;2023-07-24T05:11:29;19.70;99.90
23579;DHT22;11967;50.852;4.400;2023-07-24T05:13:55;19.70;99.90
23579;DHT22;11967;50.852;4.400;2023-07-24T05:16:21;19.70;99.90
23579;DHT22;11967;50.852;4.400;2023-07-24T05:18:46;19.60;99.90
23579;DHT22;11967;50.852;4.400;2023-07-24T05:21:12;19.60;99.90
23579;DHT22;11967;50.852;4.400;2023-07-24T05:23:37;19.50;99.90
23579;DHT22;11967;50.852;4.400;2023-07-24T05:26:03;19.50;99.90
23579;DHT22;11967;50.852;4.400;2023-07-24T05:28:29;19.60;99.90
23579;DHT22;11967;50.852;4.400;2023-07-24T05:30:55;19.50;99.90
23579;DHT22;11967;50.852;4.400;2023-07-24T05:33:21;19.50;99.90
23579;DHT22;11967;50.852;4.400;2023-07-24T05:35:48;19.50;99.90
23579;DHT22;11967;50.852;4.400;2023-07-24T05:38:13;19.50;99.90
23579;DHT22;11967;50.852;4.400;2023-07-24T05:40:39;19.50;99.90
23579;DHT22;11967;50.852;4.400;2023-07-24T05:43:04;19.50;99.90
23579;DHT22;11967;50.852;4.400;2023-07-24T05:45:30;19.50;99.90
23579;DHT22;11967;50.852;4.400;2023-07-24T05:47:55;19.50;99.90
23579;DHT22;11967;50.852;4.400;2023-07-24T05:50:22;19.50;99.90
23579;DHT22;11967;50.852;4.400;2023-07-24T05:52:47;19.50;99.90
23579;DHT22;11967;50.852;4.400;2023-07-24T05:55:13;19.50;99.90
23579;DHT22;11967;50.852;4.400;2023-07-24T05:57:38;19.50;99.90
23579;DHT22;11967;50.852;4.400;2023-07-24T06:00:04;19.60;99.90
23579;DHT22;11967;50.852;4.400;2023-07-24T06:02:30;19.50;99.90
23579;DHT22;11967;50.852;4.400;2023-07-24T06:04:55;19.50;99.90
23579;DHT22;11967;50.852;4.400;2023-07-24T06:07:21;19.60;99.90
23579;DHT22;11967;50.852;4.400;2023-07-24T06:09:47;19.50;99.90
23579;DHT22;11967;50.852;4.400;2023-07-24T06:12:12;19.50;99.90
23579;DHT22;11967;50.852;4.400;2023-07-24T06:14:38;19.50;99.90
23579;DHT22;11967;50.852;4.400;2023-07-24T06:17:03;19.60;99.90
23579;DHT22;11967;50.852;4.400;2023-07-24T06:19:29;19.60;99.90
23579;DHT22;11967;50.852;4.400;2023-07-24T06:21:54;19.50;99.90
23579;DHT22;11967;50.852;4.400;2023-07-24T06:24:20;19.50;99.90
23579;DHT22;11967;50.852;4.400;2023-07-24T06:26:46;19.50;99.90
23579;DHT22;11967;50.852;4.400;2023-07-24T06:29:11;19.60;99.90
23579;DHT22;11967;50.852;4.400;2023-07-24T06:31:37;19.60;99.90
23579;DHT22;11967;50.852;4.400;2023-07-24T06:34:02;19.60;99.90
23579;DHT22;11967;50.852;4.400;2023-07-24T06:36:28;19.70;99.90
23579;DHT22;11967;50.852;4.400;2023-07-24T06:38:53;19.70;99.90
23579;DHT22;11967;50.852;4.400;2023-07-24T06:41:19;19.70;99.90
23579;DHT22;11967;50.852;4.400;2023-07-24T06:43:46;19.80;99.90
23579;DHT22;11967;50.852;4.400;2023-07-24T06:46:11;19.90;99.90
23579;DHT22;11967;50.852;4.400;2023-07-24T06:48:37;19.90;99.90
23579;DHT22;11967;50.852;4.400;2023-07-24T06:51:03;20.00;99.90
23579;DHT22;11967;50.852;4.400;2023-07-24T06:53:28;19.90;99.90
23579;DHT22;11967;50.852;4.400;2023-07-24T06:55:54;20.00;99.90
23579;DHT22;11967;50.852;4.400;2023-07-24T06:58:19;20.00;99.90
23579;DHT22;11967;50.852;4.400;2023-07-24T07:00:44;20.00;99.90
23579;DHT22;11967;50.852;4.400;2023-07-24T07:03:10;19.90;99.90
23579;DHT22;11967;50.852;4.400;2023-07-24T07:05:39;20.00;99.90
23579;DHT22;11967;50.852;4.400;2023-07-24T07:08:04;20.00;99.90
23579;DHT22;11967;50.852;4.400;2023-07-24T07:10:33;20.00;99.90
23579;DHT22;11967;50.852;4.400;2023-07-24T07:12:58;20.00;99.90
23579;DHT22;11967;50.852;4.400;2023-07-24T07:15:24;19.90;99.90
23579;DHT22;11967;50.852;4.400;2023-07-24T07:17:49;19.90;99.90
23579;DHT22;11967;50.852;4.400;2023-07-24T07:20:15;19.80;99.90
23579;DHT22;11967;50.852;4.400;2023-07-24T07:22:40;19.90;99.90
23579;DHT22;11967;50.852;4.400;2023-07-24T07:25:06;19.90;99.90
23579;DHT22;11967;50.852;4.400;2023-07-24T07:27:31;19.90;99.90
23579;DHT22;11967;50.852;4.400;2023-07-24T07:29:57;20.00;99.90
23579;DHT22;11967;50.852;4.400;2023-07-24T07:32:22;20.00;99.90
23579;DHT22;11967;50.852;4.400;2023-07-24T07:34:48;20.00;99.90
23579;DHT22;11967;50.852;4.400;2023-07-24T07:37:14;20.10;99.90
23579;DHT22;11967;50.852;4.400;2023-07-24T07:39:39;20.30;99.90
23579;DHT22;11967;50.852;4.400;2023-07-24T07:42:04;20.30;99.90
23579;DHT22;11967;50.852;4.400;2023-07-24T07:44:30;20.20;99.90
23579;DHT22;11967;50.852;4.400;2023-07-24T07:46:56;20.40;99.90
23579;DHT22;11967;50.852;4.400;2023-07-24T07:49:21;20.40;99.90
23579;DHT22;11967;50.852;4.400;2023-07-24T07:51:48;20.40;99.90
23579;DHT22;11967;50.852;4.400;2023-07-24T07:54:13;20.40;99.90
23579;DHT22;11967;50.852;4.400;2023-07-24T07:56:39;20.40;99.90
23579;DHT22;11967;50.852;4.400;2023-07-24T07:59:04;20.50;99.90
23579;DHT22;11967;50.852;4.400;2023-07-24T08:01:30;20.60;99.90
23579;DHT22;11967;50.852;4.400;2023-07-24T08:03:56;20.70;99.90
23579;DHT22;11967;50.852;4.400;2023-07-24T08:06:21;20.90;99.90
23579;DHT22;11967;50.852;4.400;2023-07-24T08:08:47;21.00;99.90
23579;DHT22;11967;50.852;4.400;2023-07-24T08:11:12;21.10;99.90
23579;DHT22;11967;50.852;4.400;2023-07-24T08:13:38;21.00;99.90
23579;DHT22;11967;50.852;4.400;2023-07-24T08:16:04;20.90;99.90
23579;DHT22;11967;50.852;4.400;2023-07-24T08:18:30;20.80;99.90
23579;DHT22;11967;50.852;4.400;2023-07-24T08:20:55;20.90;99.90
23579;DHT22;11967;50.852;4.400;2023-07-24T08:23:21;20.90;99.90
23579;DHT22;11967;50.852;4.400;2023-07-24T08:25:53;20.90;99.90
23579;DHT22;11967;50.852;4.400;2023-07-24T08:28:19;21.00;99.90
23579;DHT22;11967;50.852;4.400;2023-07-24T08:30:44;20.80;99.90
23579;DHT22;11967;50.852;4.400;2023-07-24T08:33:12;20.50;99.90
23579;DHT22;11967;50.852;4.400;2023-07-24T08:35:37;20.50;99.90
23579;DHT22;11967;50.852;4.400;2023-07-24T08:38:03;20.70;99.90
23579;DHT22;11967;50.852;4.400;2023-07-24T08:40:28;20.80;99.90
23579;DHT22;11967;50.852;4.400;2023-07-24T08:42:53;20.80;99.90
23579;DHT22;11967;50.852;4.400;2023-07-24T08:45:19;21.00;99.90
23579;DHT22;11967;50.852;4.400;2023-07-24T08:47:45;21.00;99.90
23579;DHT22;11967;50.852;4.400;2023-07-24T08:50:11;21.10;99.90
23579;DHT22;11967;50.852;4.400;2023-07-24T08:52:38;21.20;99.90
23579;DHT22;11967;50.852;4.400;2023-07-24T08:55:04;21.20;99.90
23579;DHT22;11967;50.852;4.400;2023-07-24T08:57:30;21.30;99.90
23579;DHT22;11967;50.852;4.400;2023-07-24T08:59:55;21.30;99.90
23579;DHT22;11967;50.852;4.400;2023-07-24T09:02:21;21.30;99.90
23579;DHT22;11967;50.852;4.400;2023-07-24T09:04:46;21.30;99.90
23579;DHT22;11967;50.852;4.400;2023-07-24T09:07:12;21.10;99.90
23579;DHT22;11967;50.852;4.400;2023-07-24T09:09:39;21.00;99.90
23579;DHT22;11967;50.852;4.400;2023-07-24T09:12:05;21.00;99.90
23579;DHT22;11967;50.852;4.400;2023-07-24T09:14:30;20.90;99.90
23579;DHT22;11967;50.852;4.400;2023-07-24T09:17:02;20.90;99.90
23579;DHT22;11967;50.852;4.400;2023-07-24T09:19:28;20.80;99.90
23579;DHT22;11967;50.852;4.400;2023-07-24T09:21:54;20.80;99.90
23579;DHT22;11967;50.852;4.400;2023-07-24T09:24:19;20.80;99.90
23579;DHT22;11967;50.852;4.400;2023-07-24T09:26:51;20.80;99.90
23579;DHT22;11967;50.852;4.400;2023-07-24T09:29:17;20.80;99.90
23579;DHT22;11967;50.852;4.400;2023-07-24T09:31:43;20.80;99.90
23579;DHT22;11967;50.852;4.400;2023-07-24T09:34:13;20.80;99.90
23579;DHT22;11967;50.852;4.400;2023-07-24T09:36:39;20.80;99.90
23579;DHT22;11967;50.852;4.400;2023-07-24T09:39:04;21.00;99.90
23579;DHT22;11967;50.852;4.400;2023-07-24T09:41:31;20.90;99.90
23579;DHT22;11967;50.852;4.400;2023-07-24T09:43:59;20.90;99.90
23579;DHT22;11967;50.852;4.400;2023-07-24T09:46:25;20.90;99.90
23579;DHT22;11967;50.852;4.400;2023-07-24T09:48:51;20.80;99.90
23579;DHT22;11967;50.852;4.400;2023-07-24T09:51:17;20.90;99.90
23579;DHT22;11967;50.852;4.400;2023-07-24T09:53:44;21.00;99.90
23579;DHT22;11967;50.852;4.400;2023-07-24T09:56:13;21.00;99.90
23579;DHT22;11967;50.852;4.400;2023-07-24T09:58:39;21.10;99.90
23579;DHT22;11967;50.852;4.400;2023-07-24T10:01:08;21.10;99.90
23579;DHT22;11967;50.852;4.400;2023-07-24T10:03:35;20.90;99.90
23579;DHT22;11967;50.852;4.400;2023-07-24T10:06:01;20.80;99.90
23579;DHT22;11967;50.852;4.400;2023-07-24T10:08:27;20.70;99.90
23579;DHT22;11967;50.852;4.400;2023-07-24T10:10:52;20.60;99.90
23579;DHT22;11967;50.852;4.400;2023-07-24T10:13:21;20.50;99.90
23579;DHT22;11967;50.852;4.400;2023-07-24T10:15:47;20.40;99.90
23579;DHT22;11967;50.852;4.400;2023-07-24T10:18:15;20.40;99.90
23579;DHT22;11967;50.852;4.400;2023-07-24T10:20:41;20.50;99.90
23579;DHT22;11967;50.852;4.400;2023-07-24T10:23:07;20.60;99.90
23579;DHT22;11967;50.852;4.400;2023-07-24T10:25:34;20.70;99.90
23579;DHT22;11967;50.852;4.400;2023-07-24T10:28:03;20.90;99.90
23579;DHT22;11967;50.852;4.400;2023-07-24T10:30:36;21.00;99.90
23579;DHT22;11967;50.852;4.400;2023-07-24T10:33:12;21.00;99.90
23579;DHT22;11967;50.852;4.400;2023-07-24T10:35:49;21.00;99.90
23579;DHT22;11967;50.852;4.400;2023-07-24T10:38:16;21.00;99.90
23579;DHT22;11967;50.852;4.400;2023-07-24T10:40:43;21.10;99.90
23579;DHT22;11967;50.852;4.400;2023-07-24T10:43:13;21.20;99.90
23579;DHT22;11967;50.852;4.400;2023-07-24T10:48:04;21.40;99.90
23579;DHT22;11967;50.852;4.400;2023-07-24T10:50:36;21.30;99.90
23579;DHT22;11967;50.852;4.400;2023-07-24T10:53:01;21.10;99.90
23579;DHT22;11967;50.852;4.400;2023-07-24T10:55:27;21.10;99.90
23579;DHT22;11967;50.852;4.400;2023-07-24T10:57:52;20.90;99.90
23579;DHT22;11967;50.852;4.400;2023-07-24T11:00:18;20.90;99.90
23579;DHT22;11967;50.852;4.400;2023-07-24T11:02:43;20.90;99.90
23579;DHT22;11967;50.852;4.400;2023-07-24T11:05:09;20.90;99.90
23579;DHT22;11967;50.852;4.400;2023-07-24T11:07:37;21.00;99.90
23579;DHT22;11967;50.852;4.400;2023-07-24T11:10:02;20.90;99.90
23579;DHT22;11967;50.852;4.400;2023-07-24T11:12:28;21.00;99.90
23579;DHT22;11967;50.852;4.400;2023-07-24T11:14:57;20.90;99.90
23579;DHT22;11967;50.852;4.400;2023-07-24T11:17:34;20.90;99.90
23579;DHT22;11967;50.852;4.400;2023-07-24T11:20:11;21.00;99.90
23579;DHT22;11967;50.852;4.400;2023-07-24T11:22:41;21.00;99.90
23579;DHT22;11967;50.852;4.400;2023-07-24T11:25:07;21.10;99.90
23579;DHT22;11967;50.852;4.400;2023-07-24T11:27:37;21.10;99.90
23579;DHT22;11967;50.852;4.400;2023-07-24T11:30:02;21.00;99.90
23579;DHT22;11967;50.852;4.400;2023-07-24T11:32:28;21.00;99.90
23579;DHT22;11967;50.852;4.400;2023-07-24T11:34:54;21.00;99.90
23579;DHT22;11967;50.852;4.400;2023-07-24T11:37:19;21.00;99.90
23579;DHT22;11967;50.852;4.400;2023-07-24T11:39:58;21.10;99.90
23579;DHT22;11967;50.852;4.400;2023-07-24T11:42:27;21.10;99.90
23579;DHT22;11967;50.852;4.400;2023-07-24T11:44:53;21.20;99.90
23579;DHT22;11967;50.852;4.400;2023-07-24T11:47:18;21.20;99.90
23579;DHT22;11967;50.852;4.400;2023-07-24T11:49:44;21.30;99.90
23579;DHT22;11967;50.852;4.400;2023-07-24T11:52:14;21.30;99.90
23579;DHT22;11967;50.852;4.400;2023-07-24T11:54:39;21.40;99.90
23579;DHT22;11967;50.852;4.400;2023-07-24T11:57:15;21.30;99.90
23579;DHT22;11967;50.852;4.400;2023-07-24T11:59:41;21.30;99.90
23579;DHT22;11967;50.852;4.400;2023-07-24T12:02:09;21.30;99.90
23579;DHT22;11967;50.852;4.400;2023-07-24T12:04:35;21.30;99.90
23579;DHT22;11967;50.852;4.400;2023-07-24T12:07:01;21.40;99.90
23579;DHT22;11967;50.852;4.400;2023-07-24T12:09:30;21.50;99.90
23579;DHT22;11967;50.852;4.400;2023-07-24T12:11:57;21.50;99.90
23579;DHT22;11967;50.852;4.400;2023-07-24T12:14:23;21.70;99.90
23579;DHT22;11967;50.852;4.400;2023-07-24T12:16:48;21.80;99.90
23579;DHT22;11967;50.852;4.400;2023-07-24T12:19:14;21.90;99.90
23579;DHT22;11967;50.852;4.400;2023-07-24T12:21:39;21.90;99.90
23579;DHT22;11967;50.852;4.400;2023-07-24T12:24:05;22.00;99.90
23579;DHT22;11967;50.852;4.400;2023-07-24T12:26:30;22.00;99.90
23579;DHT22;11967;50.852;4.400;2023-07-24T12:28:56;21.80;99.90
23579;DHT22;11967;50.852;4.400;2023-07-24T12:31:23;21.80;99.90
23579;DHT22;11967;50.852;4.400;2023-07-24T12:33:49;21.70;99.90
23579;DHT22;11967;50.852;4.400;2023-07-24T12:36:14;21.70;99.90
23579;DHT22;11967;50.852;4.400;2023-07-24T12:38:40;21.60;99.90
23579;DHT22;11967;50.852;4.400;2023-07-24T12:41:05;21.60;99.90
23579;DHT22;11967;50.852;4.400;2023-07-24T12:43:31;21.50;99.90
23579;DHT22;11967;50.852;4.400;2023-07-24T12:45:56;21.40;99.90
23579;DHT22;11967;50.852;4.400;2023-07-24T12:48:22;21.40;99.90
23579;DHT22;11967;50.852;4.400;2023-07-24T12:50:47;21.40;99.90
23579;DHT22;11967;50.852;4.400;2023-07-24T12:53:13;21.40;99.90
23579;DHT22;11967;50.852;4.400;2023-07-24T12:55:38;21.50;99.90
23579;DHT22;11967;50.852;4.400;2023-07-24T12:58:04;21.50;99.90
23579;DHT22;11967;50.852;4.400;2023-07-24T13:00:29;21.50;99.90
23579;DHT22;11967;50.852;4.400;2023-07-24T13:02:55;21.50;99.90
23579;DHT22;11967;50.852;4.400;2023-07-24T13:05:21;21.50;99.90
23579;DHT22;11967;50.852;4.400;2023-07-24T13:07:46;21.40;99.90
23579;DHT22;11967;50.852;4.400;2023-07-24T13:10:12;21.30;99.90
23579;DHT22;11967;50.852;4.400;2023-07-24T13:12:38;21.30;99.90
23579;DHT22;11967;50.852;4.400;2023-07-24T13:15:04;21.30;99.90
23579;DHT22;11967;50.852;4.400;2023-07-24T13:17:29;21.40;99.90
23579;DHT22;11967;50.852;4.400;2023-07-24T13:19:55;21.30;99.90
23579;DHT22;11967;50.852;4.400;2023-07-24T13:22:20;21.30;99.90
23579;DHT22;11967;50.852;4.400;2023-07-24T13:24:46;21.30;99.90
23579;DHT22;11967;50.852;4.400;2023-07-24T13:27:11;21.30;99.90
23579;DHT22;11967;50.852;4.400;2023-07-24T13:29:37;21.30;99.90
23579;DHT22;11967;50.852;4.400;2023-07-24T13:32:02;21.40;99.90
23579;DHT22;11967;50.852;4.400;2023-07-24T13:34:29;21.40;99.90
23579;DHT22;11967;50.852;4.400;2023-07-24T13:36:54;21.50;99.90
23579;DHT22;11967;50.852;4.400;2023-07-24T13:39:21;21.60;99.90
23579;DHT22;11967;50.852;4.400;2023-07-24T13:41:46;21.50;99.90
23579;DHT22;11967;50.852;4.400;2023-07-24T13:44:12;21.50;99.90
23579;DHT22;11967;50.852;4.400;2023-07-24T13:46:38;21.40;99.90
23579;DHT22;11967;50.852;4.400;2023-07-24T13:49:04;21.30;99.90
23579;DHT22;11967;50.852;4.400;2023-07-24T13:51:29;21.30;99.90
23579;DHT22;11967;50.852;4.400;2023-07-24T13:53:55;21.20;99.90
23579;DHT22;11967;50.852;4.400;2023-07-24T13:56:20;21.30;99.90
23579;DHT22;11967;50.852;4.400;2023-07-24T13:58:48;21.40;99.90
23579;DHT22;11967;50.852;4.400;2023-07-24T14:01:13;21.40;99.90
23579;DHT22;11967;50.852;4.400;2023-07-24T14:03:39;21.40;99.90
23579;DHT22;11967;50.852;4.400;2023-07-24T14:06:04;21.50;99.90
23579;DHT22;11967;50.852;4.400;2023-07-24T14:08:30;21.50;99.90
23579;DHT22;11967;50.852;4.400;2023-07-24T14:10:55;21.50;99.90
23579;DHT22;11967;50.852;4.400;2023-07-24T14:13:21;21.60;99.90
23579;DHT22;11967;50.852;4.400;2023-07-24T14:15:46;21.50;99.90
23579;DHT22;11967;50.852;4.400;2023-07-24T14:18:12;21.50;99.90
23579;DHT22;11967;50.852;4.400;2023-07-24T14:20:37;21.50;99.90
23579;DHT22;11967;50.852;4.400;2023-07-24T14:23:06;21.60;99.90
23579;DHT22;11967;50.852;4.400;2023-07-24T14:25:32;21.50;99.90
23579;DHT22;11967;50.852;4.400;2023-07-24T14:27:57;21.40;99.90
23579;DHT22;11967;50.852;4.400;2023-07-24T14:30:22;21.40;99.90
23579;DHT22;11967;50.852;4.400;2023-07-24T14:32:48;21.40;99.90
23579;DHT22;11967;50.852;4.400;2023-07-24T14:35:15;21.40;99.90
23579;DHT22;11967;50.852;4.400;2023-07-24T14:37:40;21.40;99.90
23579;DHT22;11967;50.852;4.400;2023-07-24T14:40:06;21.50;99.90
23579;DHT22;11967;50.852;4.400;2023-07-24T14:42:33;21.60;99.90
23579;DHT22;11967;50.852;4.400;2023-07-24T14:44:58;21.70;99.90
23579;DHT22;11967;50.852;4.400;2023-07-24T14:47:27;21.60;99.90
23579;DHT22;11967;50.852;4.400;2023-07-24T14:49:53;21.70;99.90
23579;DHT22;11967;50.852;4.400;2023-07-24T14:52:19;21.70;99.90
23579;DHT22;11967;50.852;4.400;2023-07-24T14:54:44;21.70;99.90
23579;DHT22;11967;50.852;4.400;2023-07-24T14:57:10;21.70;99.90
23579;DHT22;11967;50.852;4.400;2023-07-24T14:59:37;21.40;99.90
23579;DHT22;11967;50.852;4.400;2023-07-24T15:02:02;21.30;99.90
23579;DHT22;11967;50.852;4.400;2023-07-24T15:04:28;21.10;99.90
23579;DHT22;11967;50.852;4.400;2023-07-24T15:06:53;21.00;99.90
23579;DHT22;11967;50.852;4.400;2023-07-24T15:09:19;21.00;99.90
23579;DHT22;11967;50.852;4.400;2023-07-24T15:11:44;21.00;99.90
23579;DHT22;11967;50.852;4.400;2023-07-24T15:14:10;20.80;99.90
23579;DHT22;11967;50.852;4.400;2023-07-24T15:16:35;20.60;99.90
23579;DHT22;11967;50.852;4.400;2023-07-24T15:19:01;20.60;99.90
23579;DHT22;11967;50.852;4.400;2023-07-24T15:21:26;20.60;99.90
23579;DHT22;11967;50.852;4.400;2023-07-24T15:23:52;20.60;99.90
23579;DHT22;11967;50.852;4.400;2023-07-24T15:26:18;20.50;99.90